Time;durP1;ratioP1;P1;durP2;ratioP2;P2;SDS_P1;SDS_P2;PMS_P1;PMS_P2;Temp;Humidity;BMP_temperature;BMP_pressure;BME280_temperature;BME280_humidity;BME280_pressure;Samples;Min_cycle;Max_cycle;Signal;HPM_P1;HPM_P2
2021/12/24 00:00:11;;;;;;;9.07;4.23;;;;;;;7.28;84.83;94898.69;6124272;23;20525;-81
2021/12/24 00:02:37;;;;;;;22.20;10.37;;;;;;;7.21;85.34;94895.88;6123631;23;20160;-82
2021/12/24 00:05:03;;;;;;;15.77;6.93;;;;;;;7.17;85.74;94897.13;6124328;23;20172;-81
2021/12/24 00:07:32;;;;;;;18.87;9.10;;;;;;;7.20;85.52;94904.56;6099835;23;20235;-80
2021/12/24 00:09:57;;;;;;;10.97;5.80;;;;;;;7.16;85.45;94892.09;6123658;23;20172;-81
2021/12/24 00:12:25;;;;;;;6.50;4.00;;;;;;;7.06;85.59;94887.75;6124406;23;20716;-81
2021/12/24 00:14:54;;;;;;;12.67;6.70;;;;;;;7.00;85.77;94896.09;6124153;23;20200;-82
2021/12/24 00:17:26;;;;;;;15.53;9.13;;;;;;;7.00;85.95;94887.53;6100374;23;20199;-80
2021/12/24 00:20:13;;;;;;;8.43;5.60;;;;;;;6.95;86.71;94892.28;6124631;23;20148;-81
2021/12/24 00:36:00;;;;;;;4.10;3.23;;;;;;;6.86;86.48;94869.91;6126321;23;20213;-81
2021/12/24 00:38:25;;;;;;;8.27;4.00;;;;;;;6.78;86.88;94863.69;6077637;23;20614;-80
2021/12/24 00:40:51;;;;;;;5.57;2.90;;;;;;;6.73;87.02;94859.91;6101460;23;20164;-80
2021/12/24 00:43:17;;;;;;;3.73;3.13;;;;;;;6.71;87.82;94849.72;6125585;23;20167;-80
2021/12/24 00:45:44;;;;;;;3.73;2.87;;;;;;;6.99;85.86;94850.59;6125845;23;20192;-79
2021/12/24 00:48:16;;;;;;;5.30;2.90;;;;;;;6.91;86.46;94847.09;6100913;23;20191;-79
2021/12/24 00:50:55;;;;;;;4.47;2.80;;;;;;;6.84;86.88;94854.59;6125551;23;20152;-80
2021/12/24 00:56:13;;;;;;;3.33;3.00;;;;;;;6.87;87.09;94845.72;6126254;23;20192;-79
2021/12/24 00:58:39;;;;;;;3.60;2.70;;;;;;;6.84;86.86;94851.19;6100490;23;20159;-80
2021/12/24 01:01:06;;;;;;;4.17;2.50;;;;;;;6.93;86.74;94855.50;6101042;23;20172;-80
2021/12/24 01:03:32;;;;;;;5.77;2.93;;;;;;;7.01;85.94;94859.00;6101111;23;20167;-80
2021/12/24 01:05:57;;;;;;;3.63;2.43;;;;;;;7.26;84.36;94856.72;6100891;23;20172;-80
2021/12/24 01:08:23;;;;;;;2.80;2.33;;;;;;;7.14;85.13;94857.84;6125456;23;20530;-81
2021/12/24 01:10:55;;;;;;;4.50;3.10;;;;;;;7.24;84.46;94856.03;6125562;23;20646;-80
2021/12/24 01:13:21;;;;;;;2.97;2.53;;;;;;;7.20;84.20;94859.84;6124727;23;20481;-80
2021/12/24 01:15:58;;;;;;;3.70;2.27;;;;;;;7.18;84.42;94843.69;6124855;23;20195;-81
2021/12/24 01:18:58;;;;;;;2.90;2.20;;;;;;;7.21;84.64;94844.22;6125383;23;20482;-80
2021/12/24 01:24:13;;;;;;;6.03;2.90;;;;;;;7.30;83.27;94843.34;6125958;23;20140;-81
2021/12/24 01:26:51;;;;;;;4.47;2.60;;;;;;;7.27;83.41;94837.66;6126567;23;20192;-80
2021/12/24 01:29:50;;;;;;;4.33;2.37;;;;;;;7.20;83.82;94842.59;6125074;23;20160;-82
2021/12/24 01:42:58;;;;;;;2.87;2.40;;;;;;;7.11;83.98;94838.28;6124265;23;20198;-80
2021/12/24 01:45:29;;;;;;;2.93;2.40;;;;;;;7.05;84.63;94844.03;6117833;23;20172;-79
2021/12/24 01:48:04;;;;;;;3.37;2.43;;;;;;;7.09;84.39;94842.78;6122382;23;20172;-81
2021/12/24 01:50:33;;;;;;;2.50;2.17;;;;;;;7.06;84.37;94843.06;6097865;23;20201;-80
2021/12/24 01:52:59;;;;;;;3.73;2.40;;;;;;;7.19;83.57;94835.81;6095824;23;20291;-81
2021/12/24 01:55:26;;;;;;;3.83;2.30;;;;;;;7.13;84.08;94836.38;6121332;23;20221;-81
2021/12/24 01:57:52;;;;;;;4.47;2.27;;;;;;;7.26;83.40;94830.88;6072364;23;20164;-81
2021/12/24 02:00:23;;;;;;;4.90;2.83;;;;;;;7.33;83.26;94837.06;6121200;23;20259;-81
2021/12/24 02:02:49;;;;;;;3.30;2.60;;;;;;;7.27;83.56;94832.50;6119518;23;20211;-82
2021/12/24 02:05:14;;;;;;;2.90;2.23;;;;;;;7.37;83.13;94826.31;6123563;23;20176;-81
2021/12/24 02:07:40;;;;;;;4.53;2.70;;;;;;;7.44;82.74;94818.81;6123628;23;20156;-81
2021/12/24 02:10:07;;;;;;;3.33;2.57;;;;;;;7.45;82.83;94817.84;6124047;23;20167;-82
2021/12/24 02:12:34;;;;;;;3.90;2.60;;;;;;;7.42;82.93;94812.97;6075124;23;20582;-82
2021/12/24 02:15:01;;;;;;;6.13;2.70;;;;;;;7.48;82.57;94801.22;6123361;23;20192;-82
2021/12/24 02:17:52;;;;;;;2.97;2.60;;;;;;;7.41;83.01;94808.75;6123990;23;20239;-81
2021/12/24 02:28:36;;;;;;;6.17;3.20;;;;;;;7.35;83.36;94786.09;6124349;23;20199;-81
2021/12/24 02:31:03;;;;;;;6.93;2.80;;;;;;;7.44;83.04;94790.41;6124384;23;20276;-82
2021/12/24 02:33:28;;;;;;;4.73;3.33;;;;;;;7.51;82.90;94793.19;6075482;23;20159;-81
2021/12/24 02:35:53;;;;;;;4.60;2.97;;;;;;;7.60;82.22;94769.06;6099905;23;20191;-82
2021/12/24 02:38:19;;;;;;;5.13;2.97;;;;;;;7.59;82.34;94764.84;6100152;23;20168;-81
2021/12/24 02:40:45;;;;;;;4.73;2.77;;;;;;;7.60;82.37;94753.56;6124534;23;20156;-81
2021/12/24 02:43:14;;;;;;;5.13;3.23;;;;;;;7.61;82.55;94745.66;6123955;23;20291;-81
2021/12/24 02:45:42;;;;;;;3.63;2.47;;;;;;;7.69;81.94;94757.03;6100055;23;20618;-80
2021/12/24 02:56:17;;;;;;;5.50;3.40;;;;;;;7.46;82.90;94764.41;6124742;23;20222;-80
2021/12/24 02:58:46;;;;;;;4.13;3.17;;;;;;;7.47;82.89;94766.03;6099866;23;20160;-82
2021/12/24 03:01:14;;;;;;;6.73;3.37;;;;;;;7.52;82.62;94763.81;6122269;23;20261;-80
2021/12/24 03:03:39;;;;;;;4.73;3.60;;;;;;;7.49;82.70;94759.75;6099833;23;20519;-81
2021/12/24 03:06:05;;;;;;;3.80;2.93;;;;;;;7.56;82.72;94753.03;6124395;23;20171;-81
2021/12/24 03:08:31;;;;;;;3.70;2.77;;;;;;;7.54;82.73;94761.91;6099885;23;20155;-81
2021/12/24 03:10:58;;;;;;;3.93;3.00;;;;;;;7.49;83.19;94756.34;6125877;23;20182;-81
2021/12/24 03:13:24;;;;;;;5.33;3.10;;;;;;;7.65;82.43;94752.16;6124204;23;20248;-81
2021/12/24 03:15:51;;;;;;;5.33;3.40;;;;;;;7.66;82.53;94753.75;6124411;23;20213;-81
2021/12/24 03:18:23;;;;;;;4.10;3.13;;;;;;;7.64;82.95;94753.09;6124618;23;20550;-81
2021/12/24 03:20:49;;;;;;;5.10;3.13;;;;;;;7.59;83.10;94757.09;6124561;23;20155;-82
2021/12/24 03:23:33;;;;;;;4.37;3.53;;;;;;;7.55;83.30;94733.31;6125041;23;20156;-80
2021/12/24 03:25:58;;;;;;;6.63;3.40;;;;;;;7.56;83.71;94731.56;6125475;23;20222;-81
2021/12/24 03:28:24;;;;;;;4.07;3.13;;;;;;;7.53;83.67;94730.09;6124912;23;20159;-81
2021/12/24 03:30:49;;;;;;;3.33;3.03;;;;;;;7.51;83.45;94721.69;6124807;23;20254;-81
2021/12/24 03:33:14;;;;;;;4.27;3.33;;;;;;;7.54;83.87;94723.16;6123707;23;20234;-80
2021/12/24 03:35:39;;;;;;;3.90;3.23;;;;;;;7.46;84.35;94720.50;6124319;23;20191;-81
2021/12/24 03:38:05;;;;;;;4.40;3.40;;;;;;;7.51;84.37;94726.84;6124544;23;20171;-79
2021/12/24 03:40:30;;;;;;;4.30;3.43;;;;;;;7.50;84.46;94737.31;6124094;23;20177;-80
2021/12/24 03:42:55;;;;;;;3.67;3.23;;;;;;;7.54;84.48;94725.72;6099595;23;20178;-81
2021/12/24 03:45:34;;;;;;;4.20;3.20;;;;;;;7.52;84.31;94720.72;6124574;23;20622;-80
2021/12/24 03:48:03;;;;;;;4.47;3.10;;;;;;;7.53;84.35;94721.53;6124076;23;20182;-80
2021/12/24 03:50:45;;;;;;;4.47;3.70;;;;;;;7.55;84.62;94723.00;6124594;23;20160;-80
2021/12/24 03:55:54;;;;;;;8.90;4.00;;;;;;;7.47;84.79;94717.75;6126587;23;20206;-80
2021/12/24 03:58:20;;;;;;;4.50;3.20;;;;;;;7.49;84.70;94723.56;6124697;23;20156;-81
2021/12/24 04:00:46;;;;;;;3.83;3.30;;;;;;;7.48;85.15;94714.22;6125101;23;20185;-81
2021/12/24 04:03:11;;;;;;;5.50;3.13;;;;;;;7.51;84.88;94715.69;6101561;23;20336;-81
2021/12/24 04:05:37;;;;;;;6.27;3.53;;;;;;;7.51;85.39;94723.44;6127169;23;20206;-81
2021/12/24 04:08:02;;;;;;;4.73;3.40;;;;;;;7.47;85.40;94717.75;6102319;23;20218;-80
2021/12/24 04:11:00;;;;;;;4.37;3.20;;;;;;;7.41;85.93;94728.69;6102351;23;20164;-80
2021/12/24 04:13:19;;;;;;;3.90;3.43;;;;;;;7.38;86.25;94722.03;6123250;23;20160;-80
2021/12/24 04:15:44;;;;;;;5.40;3.33;;;;;;;7.38;86.68;94723.81;6127290;23;20246;-80
2021/12/24 04:18:23;;;;;;;5.50;3.70;;;;;;;7.35;86.58;94724.13;6078324;23;20174;-80
2021/12/24 04:26:16;;;;;;;6.20;3.53;;;;;;;7.43;85.97;94710.47;6126665;23;20195;-81
2021/12/24 04:28:41;;;;;;;3.70;3.33;;;;;;;7.41;86.13;94730.44;6128335;23;20537;-82
2021/12/24 04:31:07;;;;;;;3.97;3.57;;;;;;;7.37;86.78;94725.59;6126036;23;20659;-81
2021/12/24 04:33:36;;;;;;;3.80;3.50;;;;;;;7.36;86.90;94728.31;6126320;23;20234;-80
2021/12/24 04:52:18;;;;;;;4.40;3.60;;;;;;;7.30;86.91;94726.31;6125688;23;20151;-80
2021/12/24 05:03:05;;;;;;;5.13;2.97;;;;;;;7.30;86.80;94729.72;6125185;23;20155;-81
2021/12/24 05:05:47;;;;;;;4.40;3.60;;;;;;;7.24;87.19;94732.06;6126487;23;20176;-80
2021/12/24 05:10:38;;;;;;;5.77;3.43;;;;;;;7.32;86.55;94727.78;6126066;23;20160;-81
2021/12/24 05:13:09;;;;;;;8.30;3.80;;;;;;;7.33;86.78;94728.59;6125018;23;20187;-81
2021/12/24 05:15:39;;;;;;;4.60;3.53;;;;;;;7.33;86.35;94724.28;6077635;23;20180;-81
2021/12/24 05:23:34;;;;;;;5.43;3.77;;;;;;;7.35;86.60;94718.94;6106084;23;20187;-81
2021/12/24 05:26:01;;;;;;;6.07;4.03;;;;;;;7.36;86.82;94720.56;6125553;23;20176;-81
2021/12/24 05:28:26;;;;;;;7.50;4.53;;;;;;;7.35;86.92;94716.38;6125405;23;20637;-81
2021/12/24 05:30:52;;;;;;;5.67;4.00;;;;;;;7.36;87.03;94718.81;6077227;23;20183;-81
2021/12/24 05:33:17;;;;;;;7.70;4.43;;;;;;;7.38;87.03;94710.91;6125113;23;20211;-81
2021/12/24 05:35:44;;;;;;;5.77;4.17;;;;;;;7.39;86.69;94707.34;6126041;23;20235;-81
2021/12/24 05:38:10;;;;;;;6.10;4.47;;;;;;;7.39;86.99;94713.31;6127033;23;20203;-81
2021/12/24 05:40:36;;;;;;;4.40;3.70;;;;;;;7.42;86.69;94706.22;6126685;23;20167;-82
2021/12/24 05:43:01;;;;;;;5.83;4.33;;;;;;;7.42;86.83;94720.00;6100827;23;20164;-79
2021/12/24 05:45:26;;;;;;;5.50;4.40;;;;;;;7.36;87.08;94728.31;6100783;23;20247;-82
2021/12/24 05:47:52;;;;;;;5.73;4.27;;;;;;;7.37;87.68;94717.03;6125324;23;20219;-81
2021/12/24 05:50:18;;;;;;;7.07;4.20;;;;;;;7.40;87.28;94729.63;6124996;23;20641;-80
2021/12/24 05:52:44;;;;;;;6.73;4.63;;;;;;;7.39;86.96;94725.44;6100268;23;20221;-81
2021/12/24 05:55:10;;;;;;;5.70;3.93;;;;;;;7.39;87.30;94725.44;6125435;23;20717;-81
2021/12/24 05:57:35;;;;;;;5.20;3.87;;;;;;;7.46;87.46;94731.63;6101129;23;20246;-82
2021/12/24 06:00:05;;;;;;;6.80;4.50;;;;;;;7.42;87.66;94725.16;6126920;23;20191;-77
2021/12/24 06:02:31;;;;;;;5.87;4.33;;;;;;;7.41;87.82;94726.09;6126279;23;20225;-79
2021/12/24 06:04:56;;;;;;;5.67;4.47;;;;;;;7.41;87.95;94731.25;6105287;23;20175;-79
2021/12/24 06:07:21;;;;;;;7.30;4.57;;;;;;;7.43;87.64;94731.94;6103614;23;20152;-78
2021/12/24 06:09:47;;;;;;;5.37;4.30;;;;;;;7.45;87.79;94717.09;6143258;23;20703;-79
2021/12/24 06:12:12;;;;;;;6.90;4.90;;;;;;;7.47;87.81;94709.19;6155723;23;20598;-82
2021/12/24 06:14:39;;;;;;;6.20;5.13;;;;;;;7.47;87.84;94712.59;6130096;23;20226;-81
2021/12/24 06:17:10;;;;;;;6.10;4.37;;;;;;;7.41;88.10;94710.59;6130661;23;20163;-82
2021/12/24 06:19:35;;;;;;;5.93;5.03;;;;;;;7.41;88.11;94707.19;6130994;23;20578;-81
2021/12/24 06:22:00;;;;;;;7.07;5.87;;;;;;;7.43;88.61;94718.22;6153461;23;20215;-80
2021/12/24 06:24:26;;;;;;;7.50;5.33;;;;;;;7.41;88.51;94730.44;6129376;23;20167;-80
2021/12/24 06:26:51;;;;;;;6.87;5.20;;;;;;;7.41;88.58;94725.28;6156052;23;20641;-80
2021/12/24 06:29:17;;;;;;;6.70;4.87;;;;;;;7.39;88.98;94744.31;6130051;23;20166;-82
2021/12/24 06:31:43;;;;;;;6.60;5.00;;;;;;;7.38;88.86;94750.44;6130872;23;20666;-82
2021/12/24 06:34:08;;;;;;;6.97;5.40;;;;;;;7.39;88.61;94735.75;6105486;23;20155;-80
2021/12/24 06:36:36;;;;;;;6.23;4.40;;;;;;;7.37;88.86;94738.50;6156351;23;20176;-82
2021/12/24 06:39:04;;;;;;;9.47;6.17;;;;;;;7.31;89.37;94722.78;6129756;23;20174;-82
2021/12/24 06:41:29;;;;;;;7.63;5.23;;;;;;;7.30;89.56;94723.75;6129642;23;20648;-81
2021/12/24 06:43:54;;;;;;;7.97;5.03;;;;;;;7.29;90.01;94738.41;6105373;23;20155;-81
2021/12/24 06:46:20;;;;;;;6.87;5.33;;;;;;;7.32;89.90;94738.13;6130370;23;20839;-81
2021/12/24 06:48:45;;;;;;;7.40;5.00;;;;;;;7.25;89.52;94742.28;6153975;23;20530;-82
2021/12/24 06:51:11;;;;;;;7.20;5.27;;;;;;;7.26;90.05;94748.25;6156132;23;20151;-81
2021/12/24 06:53:36;;;;;;;6.73;5.47;;;;;;;7.24;89.92;94737.22;6130299;23;20186;-81
2021/12/24 06:56:01;;;;;;;9.80;4.90;;;;;;;7.25;90.50;94728.56;6129647;23;20175;-82
2021/12/24 06:58:27;;;;;;;7.23;5.07;;;;;;;7.28;90.98;94723.88;6129327;23;20167;-78
2021/12/24 07:00:52;;;;;;;10.23;5.40;;;;;;;7.23;91.11;94718.34;6157098;23;20155;-79
2021/12/24 07:03:17;;;;;;;6.10;5.50;;;;;;;7.23;91.50;94727.88;6107116;23;20167;-78
2021/12/24 07:05:43;;;;;;;5.80;5.00;;;;;;;7.16;91.96;94727.66;6108783;23;20171;-78
2021/12/24 07:08:08;;;;;;;6.10;4.90;;;;;;;7.15;91.70;94728.59;6108449;23;20214;-79
2021/12/24 07:10:33;;;;;;;8.63;5.50;;;;;;;7.11;91.31;94737.59;6132868;23;20202;-79
2021/12/24 07:12:59;;;;;;;7.40;4.60;;;;;;;7.17;91.53;94749.13;6127934;23;20586;-81
2021/12/24 07:15:24;;;;;;;4.93;4.43;;;;;;;7.16;91.51;94748.31;6105716;23;20520;-80
2021/12/24 07:17:49;;;;;;;5.93;5.03;;;;;;;7.15;91.69;94740.69;6129780;23;20151;-81
2021/12/24 07:20:15;;;;;;;7.00;4.93;;;;;;;7.12;91.93;94744.38;6130183;23;20163;-81
2021/12/24 07:22:40;;;;;;;11.40;6.80;;;;;;;7.03;93.35;94732.34;6126577;23;20598;-83
2021/12/24 07:25:06;;;;;;;10.07;6.00;;;;;;;7.01;94.01;94731.69;6129753;23;20708;-83
2021/12/24 07:27:32;;;;;;;6.60;5.73;;;;;;;6.99;94.00;94741.34;6129074;23;20186;-81
2021/12/24 07:29:58;;;;;;;7.57;5.73;;;;;;;7.03;93.83;94748.66;6129744;23;20213;-81
2021/12/24 07:32:23;;;;;;;7.00;5.67;;;;;;;6.95;94.99;94740.00;6129010;23;20245;-82
2021/12/24 07:34:48;;;;;;;9.50;6.07;;;;;;;6.87;95.29;94730.41;6128717;23;20174;-82
2021/12/24 07:37:14;;;;;;;6.87;5.53;;;;;;;6.85;95.57;94729.75;6129184;23;20151;-81
2021/12/24 07:39:39;;;;;;;6.90;5.40;;;;;;;6.86;95.17;94739.09;6129138;23;20163;-81
2021/12/24 07:42:05;;;;;;;11.13;6.07;;;;;;;6.84;95.67;94743.59;6127613;23;20158;-82
2021/12/24 07:44:33;;;;;;;10.73;6.80;;;;;;;6.86;95.39;94738.28;6153987;23;20155;-80
2021/12/24 07:47:01;;;;;;;9.90;6.10;;;;;;;6.83;95.85;94742.00;6129584;23;20166;-83
2021/12/24 07:52:26;;;;;;;9.23;6.20;;;;;;;6.79;96.06;94743.22;6128202;23;20238;-82
2021/12/24 07:54:47;;;;;;;8.20;6.03;;;;;;;6.78;96.14;94733.84;6130629;23;20270;-81
2021/12/24 07:57:14;;;;;;;10.67;6.37;;;;;;;6.76;96.60;94730.59;6128096;23;20186;-82
2021/12/24 07:59:40;;;;;;;8.13;5.67;;;;;;;6.74;96.54;94729.94;6128392;23;20151;-82
2021/12/24 08:02:09;;;;;;;7.93;5.80;;;;;;;6.80;96.36;94726.78;6145624;23;20328;-81
2021/12/24 08:04:36;;;;;;;8.63;5.90;;;;;;;6.79;96.23;94732.88;6122512;23;20715;-80
2021/12/24 08:07:01;;;;;;;8.60;5.53;;;;;;;6.78;96.24;94724.34;6124683;23;20156;-81
2021/12/24 08:09:27;;;;;;;7.53;5.77;;;;;;;6.79;96.09;94725.97;6127510;23;20163;-80
2021/12/24 08:11:52;;;;;;;8.33;5.63;;;;;;;6.76;96.44;94731.41;6128921;23;20230;-79
2021/12/24 08:14:17;;;;;;;8.23;5.83;;;;;;;6.74;96.30;94733.34;6129770;23;20217;-81
2021/12/24 08:16:44;;;;;;;6.80;4.93;;;;;;;6.73;96.21;94734.28;6129680;23;20179;-80
2021/12/24 08:19:09;;;;;;;5.83;4.90;;;;;;;6.70;96.45;94734.56;6128723;23;20155;-78
2021/12/24 08:21:35;;;;;;;6.80;5.30;;;;;;;6.71;96.38;94735.38;6127785;23;20156;-78
2021/12/24 08:24:00;;;;;;;7.07;5.17;;;;;;;6.65;96.77;94735.97;6153003;23;20158;-81
2021/12/24 08:26:26;;;;;;;7.03;4.90;;;;;;;6.70;96.50;94736.34;6126157;23;20175;-81
2021/12/24 08:28:51;;;;;;;10.93;6.27;;;;;;;6.65;96.53;94739.38;6103192;23;20163;-81
2021/12/24 08:31:17;;;;;;;7.57;5.83;;;;;;;6.71;96.72;94732.78;6127879;23;20140;-79
2021/12/24 08:33:42;;;;;;;6.77;5.20;;;;;;;6.68;96.01;94738.25;6129106;23;20186;-82
2021/12/24 08:36:10;;;;;;;8.57;5.43;;;;;;;6.66;96.07;94740.97;6130640;23;20183;-81
2021/12/24 08:38:35;;;;;;;8.60;6.17;;;;;;;6.67;96.01;94740.03;6130196;23;20159;-82
2021/12/24 08:41:00;;;;;;;10.87;6.80;;;;;;;6.69;95.83;94726.97;6130107;23;20664;-80
2021/12/24 08:43:26;;;;;;;9.87;6.83;;;;;;;6.69;95.95;94724.41;6129580;23;20597;-82
2021/12/24 08:45:51;;;;;;;8.70;5.50;;;;;;;6.71;95.79;94725.06;6131073;23;20258;-82
2021/12/24 08:48:17;;;;;;;8.47;5.53;;;;;;;6.69;95.89;94727.78;6131792;23;20230;-80
2021/12/24 08:50:42;;;;;;;6.07;5.37;;;;;;;6.75;95.87;94722.06;6131469;23;20163;-79
2021/12/24 08:53:08;;;;;;;8.27;5.03;;;;;;;6.66;96.05;94720.34;6130278;23;20163;-80
2021/12/24 08:55:34;;;;;;;7.17;4.83;;;;;;;6.63;96.06;94723.22;6130879;23;20258;-82
2021/12/24 08:58:00;;;;;;;7.53;5.10;;;;;;;6.64;96.65;94724.03;6155383;23;20593;-81
2021/12/24 09:00:25;;;;;;;7.80;5.80;;;;;;;6.59;96.50;94721.88;6107427;23;20166;-80
2021/12/24 09:02:51;;;;;;;5.40;4.77;;;;;;;6.62;96.91;94713.03;6131203;23;20243;-81
2021/12/24 09:05:16;;;;;;;5.50;4.50;;;;;;;6.65;97.02;94720.50;6131625;23;20175;-81
2021/12/24 09:07:42;;;;;;;7.23;4.80;;;;;;;6.62;97.38;94719.00;6156247;23;20606;-81
2021/12/24 09:10:10;;;;;;;8.17;5.13;;;;;;;6.54;98.46;94716.34;6130182;23;20170;-80
2021/12/24 09:12:36;;;;;;;6.57;4.70;;;;;;;6.56;98.43;94718.78;6106463;23;20164;-81
2021/12/24 09:15:03;;;;;;;9.10;5.37;;;;;;;6.60;98.50;94712.34;6100420;23;20623;-82
2021/12/24 09:17:29;;;;;;;6.00;4.20;;;;;;;6.56;99.21;94705.88;6098613;23;20151;-80
2021/12/24 09:19:56;;;;;;;7.53;4.20;;;;;;;6.60;99.33;94715.75;6097601;23;20164;-81
2021/12/24 09:22:29;;;;;;;6.73;4.30;;;;;;;6.58;99.24;94716.84;6099262;23;20191;-80
2021/12/24 09:24:55;;;;;;;7.33;4.63;;;;;;;6.58;99.79;94722.00;6125532;23;20199;-81
2021/12/24 09:27:20;;;;;;;6.10;4.93;;;;;;;6.58;99.86;94719.44;6123468;23;20497;-80
2021/12/24 09:29:45;;;;;;;5.60;4.20;;;;;;;6.55;99.84;94722.31;6125270;23;20151;-81
2021/12/24 09:32:11;;;;;;;14.00;8.60;;;;;;;6.52;100.00;94721.63;6098646;23;20164;-81
2021/12/24 09:34:37;;;;;;;6.10;5.00;;;;;;;6.54;100.00;94724.09;6099297;23;20628;-81
2021/12/24 09:37:02;;;;;;;11.27;8.23;;;;;;;6.54;100.00;94711.19;6099434;23;20212;-81
2021/12/24 09:39:27;;;;;;;6.33;4.40;;;;;;;6.55;100.00;94714.56;6123831;23;20214;-80
2021/12/24 09:41:53;;;;;;;6.00;4.47;;;;;;;6.53;100.00;94710.34;6098905;23;20155;-80
2021/12/24 09:44:19;;;;;;;7.57;5.00;;;;;;;6.53;100.00;94714.69;6099377;23;20160;-82
2021/12/24 09:46:44;;;;;;;7.23;4.77;;;;;;;6.53;100.00;94720.66;6098826;23;20188;-81
2021/12/24 09:49:11;;;;;;;5.53;4.13;;;;;;;6.55;100.00;94712.81;6123901;23;20590;-80
2021/12/24 09:51:40;;;;;;;6.70;5.60;;;;;;;6.58;100.00;94716.84;6098567;23;20534;-81
2021/12/24 09:54:11;;;;;;;6.30;5.70;;;;;;;6.59;100.00;94716.72;6097738;23;20151;-81
2021/12/24 09:56:37;;;;;;;8.50;5.53;;;;;;;6.61;100.00;94719.94;6098822;23;20627;-81
2021/12/24 09:59:02;;;;;;;6.20;3.83;;;;;;;6.61;100.00;94708.81;6099153;23;20156;-81
2021/12/24 10:01:40;;;;;;;7.10;4.90;;;;;;;6.56;100.00;94705.88;6098216;23;20602;-81
2021/12/24 10:04:14;;;;;;;5.33;3.77;;;;;;;6.61;100.00;94701.09;6098913;23;20606;-80
2021/12/24 10:06:48;;;;;;;4.97;4.47;;;;;;;6.62;100.00;94694.97;6098965;23;20168;-80
2021/12/24 10:09:16;;;;;;;4.57;3.67;;;;;;;6.64;100.00;94688.72;6099002;23;20143;-81
2021/12/24 10:11:48;;;;;;;5.00;3.60;;;;;;;6.61;100.00;94690.75;6097688;23;20250;-80
2021/12/24 10:14:15;;;;;;;3.67;3.23;;;;;;;6.71;100.00;94686.34;6098194;23;20138;-81
2021/12/24 10:16:42;;;;;;;5.03;3.17;;;;;;;6.70;100.00;94687.31;6097848;23;20180;-81
2021/12/24 10:19:08;;;;;;;3.67;3.33;;;;;;;6.62;100.00;94690.59;6097796;23;20164;-81
2021/12/24 10:21:35;;;;;;;3.77;2.83;;;;;;;6.65;100.00;94684.38;6098214;23;20160;-80
2021/12/24 10:24:03;;;;;;;3.20;2.80;;;;;;;6.58;100.00;94681.56;6097592;23;20215;-81
2021/12/24 10:26:34;;;;;;;3.63;3.10;;;;;;;6.64;100.00;94677.59;6097793;23;20198;-81
2021/12/24 10:29:12;;;;;;;3.17;2.63;;;;;;;6.61;100.00;94664.97;6096379;23;20156;-80
2021/12/24 10:31:40;;;;;;;4.57;3.03;;;;;;;6.63;100.00;94663.06;6122208;23;20164;-81
2021/12/24 10:34:14;;;;;;;3.10;2.80;;;;;;;6.68;100.00;94668.59;6125103;23;20152;-81
2021/12/24 10:37:03;;;;;;;3.63;2.47;;;;;;;6.65;100.00;94666.31;6099711;23;20180;-81
2021/12/24 10:39:44;;;;;;;2.47;2.20;;;;;;;6.75;100.00;94667.06;6124237;23;20167;-82
2021/12/24 10:42:14;;;;;;;1.70;1.60;;;;;;;6.72;100.00;94657.84;6099344;23;20210;-81
2021/12/24 10:44:41;;;;;;;2.63;2.23;;;;;;;6.73;100.00;94648.34;6099688;23;20166;-81
2021/12/24 10:47:08;;;;;;;3.37;2.37;;;;;;;6.70;100.00;94651.19;6099161;23;20175;-82
2021/12/24 10:49:55;;;;;;;3.77;2.03;;;;;;;6.71;100.00;94655.41;6099934;23;20602;-82
2021/12/24 10:54:53;;;;;;;2.33;2.13;;;;;;;6.83;100.00;94641.34;6098825;23;20171;-81
2021/12/24 10:57:20;;;;;;;1.93;1.70;;;;;;;6.91;100.00;94632.88;6124939;23;20622;-80
2021/12/24 10:59:50;;;;;;;2.23;1.50;;;;;;;6.75;100.00;94646.41;6123208;23;20163;-80
2021/12/24 11:02:16;;;;;;;1.90;1.70;;;;;;;6.81;100.00;94632.94;6097808;23;20163;-76
2021/12/24 11:04:42;;;;;;;2.17;1.93;;;;;;;6.90;100.00;94633.84;6123484;23;20168;-77
2021/12/24 11:07:30;;;;;;;3.00;2.80;;;;;;;6.97;100.00;94635.66;6099911;23;20163;-80
2021/12/24 11:10:14;;;;;;;6.73;3.87;;;;;;;6.93;100.00;94636.91;6098375;23;20175;-79
2021/12/24 11:12:42;;;;;;;3.83;3.10;;;;;;;6.93;100.00;94642.06;6098589;23;20156;-80
2021/12/24 11:15:26;;;;;;;4.17;1.97;;;;;;;6.86;100.00;94643.63;6122763;23;20202;-81
2021/12/24 11:17:53;;;;;;;2.10;1.90;;;;;;;6.89;100.00;94652.81;6124807;23;20136;-80
2021/12/24 11:20:19;;;;;;;2.60;2.10;;;;;;;6.84;100.00;94649.91;6099370;23;20164;-79
2021/12/24 11:22:55;;;;;;;3.33;2.50;;;;;;;6.85;100.00;94642.00;6124716;23;20192;-80
2021/12/24 11:25:23;;;;;;;2.97;2.50;;;;;;;6.91;100.00;94644.00;6099128;23;20258;-80
2021/12/24 11:27:49;;;;;;;3.90;2.50;;;;;;;6.98;100.00;94642.47;6098683;23;20246;-79
2021/12/24 11:30:15;;;;;;;2.50;2.30;;;;;;;7.00;100.00;94634.56;6098831;23;20233;-81
2021/12/24 11:32:40;;;;;;;3.53;2.20;;;;;;;7.05;100.00;94633.13;6098764;23;20163;-81
2021/12/24 11:35:06;;;;;;;4.13;2.10;;;;;;;7.02;100.00;94633.44;6123423;23;20274;-81
2021/12/24 11:37:31;;;;;;;3.13;2.73;;;;;;;7.07;100.00;94631.25;6098392;23;20171;-79
2021/12/24 11:39:57;;;;;;;4.63;3.03;;;;;;;7.09;100.00;94634.47;6098062;23;20167;-84
2021/12/24 11:42:23;;;;;;;4.83;3.27;;;;;;;7.11;100.00;94631.75;6097839;23;20187;-84
2021/12/24 11:44:49;;;;;;;2.53;2.17;;;;;;;7.13;100.00;94626.44;6098608;23;20246;-80
2021/12/24 11:47:15;;;;;;;2.23;1.43;;;;;;;7.09;100.00;94624.16;6098364;23;20629;-83
2021/12/24 11:49:40;;;;;;;2.23;2.00;;;;;;;7.03;100.00;94622.16;6123399;23;20155;-82
2021/12/24 11:52:06;;;;;;;11.90;7.97;;;;;;;7.14;100.00;94623.69;6098702;23;20171;-80
2021/12/24 11:54:31;;;;;;;2.03;1.50;;;;;;;7.18;100.00;94616.47;6098971;23;20187;-83
2021/12/24 11:56:58;;;;;;;1.70;1.60;;;;;;;7.24;100.00;94610.69;6122954;23;20242;-83
2021/12/24 11:59:37;;;;;;;1.77;1.37;;;;;;;7.23;100.00;94609.06;6098832;23;20160;-79
2021/12/24 12:02:02;;;;;;;1.70;1.53;;;;;;;7.39;100.00;94596.28;6123313;23;20151;-81
2021/12/24 12:04:27;;;;;;;3.07;1.40;;;;;;;7.57;100.00;94596.25;6098176;23;20171;-83
2021/12/24 12:07:10;;;;;;;1.60;1.50;;;;;;;7.74;100.00;94600.53;6122685;23;20168;-84
2021/12/24 12:09:45;;;;;;;1.20;1.10;;;;;;;7.82;99.59;94602.38;6099816;23;20152;-82
2021/12/24 12:12:14;;;;;;;4.30;2.80;;;;;;;7.87;99.29;94597.56;6099011;23;20155;-78
2021/12/24 12:14:41;;;;;;;1.47;1.37;;;;;;;7.81;99.53;94586.03;6125562;23;20907;-87
2021/12/24 12:17:07;;;;;;;1.13;1.00;;;;;;;7.81;99.24;94588.63;6100299;23;20188;-79
2021/12/24 12:19:57;;;;;;;1.43;1.30;;;;;;;7.79;99.59;94582.81;6099572;23;20160;-81
2021/12/24 12:23:01;;;;;;;0.90;0.90;;;;;;;7.81;99.13;94583.47;6104315;23;20164;-80
2021/12/24 12:25:34;;;;;;;1.33;1.13;;;;;;;7.88;98.77;94586.25;6106288;23;20180;-82
2021/12/24 12:28:01;;;;;;;1.10;0.97;;;;;;;7.71;99.60;94580.19;6100564;23;20187;-80
2021/12/24 12:30:30;;;;;;;2.00;0.90;;;;;;;7.86;98.94;94575.22;6100143;23;20160;-81
2021/12/24 12:33:19;;;;;;;1.37;1.00;;;;;;;7.92;98.61;94572.84;6099638;23;20164;-82
2021/12/24 12:35:48;;;;;;;1.10;1.00;;;;;;;7.77;98.64;94576.16;6125172;23;20614;-83
2021/12/24 12:38:39;;;;;;;2.30;1.40;;;;;;;7.71;99.05;94585.34;6125075;23;20213;-81
2021/12/24 12:41:22;;;;;;;1.20;1.10;;;;;;;7.67;98.91;94587.41;6100334;23;20175;-82
2021/12/24 12:43:50;;;;;;;0.60;0.60;;;;;;;7.56;99.36;94573.94;6125046;23;20604;-82
2021/12/24 12:46:36;;;;;;;0.77;0.70;;;;;;;7.61;99.03;94577.72;6100594;23;20182;-81
2021/12/24 12:49:06;;;;;;;1.30;0.90;;;;;;;7.48;99.65;94573.91;6101006;23;20494;-80
2021/12/24 12:52:06;;;;;;;1.27;1.10;;;;;;;7.50;99.50;94567.59;6098267;23;20811;-82
2021/12/24 12:54:56;;;;;;;11.10;7.40;;;;;;;7.51;99.56;94560.66;6098771;23;20657;-84
2021/12/24 12:57:36;;;;;;;3.13;2.20;;;;;;;7.43;99.92;94560.66;6103112;23;20164;-84
2021/12/24 13:00:07;;;;;;;2.73;2.40;;;;;;;7.40;99.05;94559.16;6126223;23;20167;-83
2021/12/24 13:02:58;;;;;;;2.70;2.00;;;;;;;7.42;99.06;94557.25;6126437;23;20152;-84
2021/12/24 13:05:25;;;;;;;1.40;0.80;;;;;;;7.37;99.07;94546.56;6126967;23;20182;-85
2021/12/24 13:07:51;;;;;;;1.33;1.23;;;;;;;7.48;98.48;94546.28;6101236;23;20203;-84
2021/12/24 13:10:17;;;;;;;2.63;2.00;;;;;;;7.43;98.16;94540.78;6100969;23;20164;-84
2021/12/24 13:12:43;;;;;;;2.10;1.90;;;;;;;7.42;98.35;94538.34;6126076;23;20159;-83
2021/12/24 13:15:15;;;;;;;0.70;0.70;;;;;;;7.40;98.03;94538.50;6124223;23;20202;-83
2021/12/24 13:17:45;;;;;;;4.27;2.90;;;;;;;7.44;98.33;94534.66;6102502;23;20279;-82